sensor_id;sensor_type;location;lat;lon;timestamp;P1;durP1;ratioP1;P2;durP2;ratioP2
8656;SDS011;4366;50.764;7.184;2024-02-26T00:03:26;1.73;;;1.70;;
8656;SDS011;4366;50.764;7.184;2024-02-26T00:08:28;2.50;;;1.83;;
8656;SDS011;4366;50.764;7.184;2024-02-26T00:13:30;2.00;;;1.90;;
8656;SDS011;4366;50.764;7.184;2024-02-26T00:18:31;1.63;;;1.60;;
8656;SDS011;4366;50.764;7.184;2024-02-26T00:23:33;1.60;;;1.60;;
8656;SDS011;4366;50.764;7.184;2024-02-26T00:28:35;1.77;;;1.67;;
8656;SDS011;4366;50.764;7.184;2024-02-26T00:33:37;1.53;;;1.50;;
8656;SDS011;4366;50.764;7.184;2024-02-26T00:38:39;1.73;;;1.63;;
8656;SDS011;4366;50.764;7.184;2024-02-26T00:43:43;1.50;;;1.50;;
8656;SDS011;4366;50.764;7.184;2024-02-26T00:48:44;1.73;;;1.63;;
8656;SDS011;4366;50.764;7.184;2024-02-26T00:53:46;1.70;;;1.63;;
8656;SDS011;4366;50.764;7.184;2024-02-26T00:58:48;1.53;;;1.53;;
8656;SDS011;4366;50.764;7.184;2024-02-26T01:03:49;1.87;;;1.77;;
8656;SDS011;4366;50.764;7.184;2024-02-26T01:08:51;1.70;;;1.60;;
8656;SDS011;4366;50.764;7.184;2024-02-26T01:13:53;1.50;;;1.50;;
8656;SDS011;4366;50.764;7.184;2024-02-26T01:18:57;1.70;;;1.70;;
8656;SDS011;4366;50.764;7.184;2024-02-26T01:23:59;1.93;;;1.83;;
8656;SDS011;4366;50.764;7.184;2024-02-26T01:29:01;1.40;;;1.40;;
8656;SDS011;4366;50.764;7.184;2024-02-26T01:34:03;1.50;;;1.50;;
8656;SDS011;4366;50.764;7.184;2024-02-26T01:39:04;1.60;;;1.60;;
8656;SDS011;4366;50.764;7.184;2024-02-26T01:44:06;1.50;;;1.50;;
8656;SDS011;4366;50.764;7.184;2024-02-26T01:49:08;1.90;;;1.80;;
8656;SDS011;4366;50.764;7.184;2024-02-26T01:54:13;1.83;;;1.73;;
8656;SDS011;4366;50.764;7.184;2024-02-26T01:59:15;1.60;;;1.60;;
8656;SDS011;4366;50.764;7.184;2024-02-26T02:04:17;1.60;;;1.60;;
8656;SDS011;4366;50.764;7.184;2024-02-26T02:09:19;1.80;;;1.70;;
8656;SDS011;4366;50.764;7.184;2024-02-26T02:14:21;1.40;;;1.40;;
8656;SDS011;4366;50.764;7.184;2024-02-26T02:19:23;1.57;;;1.57;;
8656;SDS011;4366;50.764;7.184;2024-02-26T02:24:25;1.50;;;1.50;;
8656;SDS011;4366;50.764;7.184;2024-02-26T02:29:26;1.50;;;1.50;;
8656;SDS011;4366;50.764;7.184;2024-02-26T02:34:29;1.70;;;1.70;;
8656;SDS011;4366;50.764;7.184;2024-02-26T02:39:32;1.63;;;1.60;;
8656;SDS011;4366;50.764;7.184;2024-02-26T02:44:34;1.77;;;1.67;;
8656;SDS011;4366;50.764;7.184;2024-02-26T02:49:35;1.60;;;1.60;;
8656;SDS011;4366;50.764;7.184;2024-02-26T02:54:37;1.53;;;1.53;;
8656;SDS011;4366;50.764;7.184;2024-02-26T02:59:41;1.50;;;1.50;;
8656;SDS011;4366;50.764;7.184;2024-02-26T03:04:44;1.63;;;1.60;;
8656;SDS011;4366;50.764;7.184;2024-02-26T03:09:45;1.90;;;1.80;;
8656;SDS011;4366;50.764;7.184;2024-02-26T03:14:47;1.80;;;1.70;;
8656;SDS011;4366;50.764;7.184;2024-02-26T03:19:49;1.60;;;1.60;;
8656;SDS011;4366;50.764;7.184;2024-02-26T03:24:54;1.80;;;1.70;;
8656;SDS011;4366;50.764;7.184;2024-02-26T03:29:56;1.63;;;1.63;;
8656;SDS011;4366;50.764;7.184;2024-02-26T03:34:58;1.67;;;1.67;;
8656;SDS011;4366;50.764;7.184;2024-02-26T03:40:01;1.50;;;1.50;;
8656;SDS011;4366;50.764;7.184;2024-02-26T03:45:04;1.70;;;1.70;;
8656;SDS011;4366;50.764;7.184;2024-02-26T03:50:06;1.90;;;1.80;;
8656;SDS011;4366;50.764;7.184;2024-02-26T03:55:08;1.50;;;1.50;;
8656;SDS011;4366;50.764;7.184;2024-02-26T04:00:10;1.87;;;1.77;;
8656;SDS011;4366;50.764;7.184;2024-02-26T04:05:13;1.83;;;1.73;;
8656;SDS011;4366;50.764;7.184;2024-02-26T04:10:15;1.73;;;1.67;;
8656;SDS011;4366;50.764;7.184;2024-02-26T04:15:17;1.60;;;1.60;;
8656;SDS011;4366;50.764;7.184;2024-02-26T04:20:19;1.90;;;1.80;;
8656;SDS011;4366;50.764;7.184;2024-02-26T04:25:20;1.87;;;1.77;;
8656;SDS011;4366;50.764;7.184;2024-02-26T04:30:22;1.70;;;1.60;;
8656;SDS011;4366;50.764;7.184;2024-02-26T04:35:24;1.60;;;1.60;;
8656;SDS011;4366;50.764;7.184;2024-02-26T04:40:26;1.80;;;1.80;;
8656;SDS011;4366;50.764;7.184;2024-02-26T04:45:27;1.57;;;1.57;;
8656;SDS011;4366;50.764;7.184;2024-02-26T04:50:29;1.80;;;1.70;;
8656;SDS011;4366;50.764;7.184;2024-02-26T04:55:31;1.80;;;1.70;;
8656;SDS011;4366;50.764;7.184;2024-02-26T05:00:32;2.00;;;1.83;;
8656;SDS011;4366;50.764;7.184;2024-02-26T05:05:34;1.83;;;1.80;;
8656;SDS011;4366;50.764;7.184;2024-02-26T05:10:37;1.93;;;1.83;;
8656;SDS011;4366;50.764;7.184;2024-02-26T05:15:42;2.57;;;1.80;;
8656;SDS011;4366;50.764;7.184;2024-02-26T05:20:43;2.00;;;1.93;;
8656;SDS011;4366;50.764;7.184;2024-02-26T05:25:46;1.80;;;1.80;;
8656;SDS011;4366;50.764;7.184;2024-02-26T05:30:49;3.63;;;2.20;;
8656;SDS011;4366;50.764;7.184;2024-02-26T05:35:51;2.77;;;2.57;;
8656;SDS011;4366;50.764;7.184;2024-02-26T05:40:52;2.23;;;1.97;;
8656;SDS011;4366;50.764;7.184;2024-02-26T05:45:54;2.07;;;1.90;;
8656;SDS011;4366;50.764;7.184;2024-02-26T05:50:56;1.70;;;1.70;;
8656;SDS011;4366;50.764;7.184;2024-02-26T05:55:57;1.90;;;1.80;;
8656;SDS011;4366;50.764;7.184;2024-02-26T06:00:59;2.03;;;1.93;;
8656;SDS011;4366;50.764;7.184;2024-02-26T06:06:01;2.13;;;2.03;;
8656;SDS011;4366;50.764;7.184;2024-02-26T06:11:06;2.00;;;1.90;;
8656;SDS011;4366;50.764;7.184;2024-02-26T06:16:09;2.70;;;1.90;;
8656;SDS011;4366;50.764;7.184;2024-02-26T06:21:10;2.83;;;1.90;;
8656;SDS011;4366;50.764;7.184;2024-02-26T06:26:12;1.93;;;1.87;;
8656;SDS011;4366;50.764;7.184;2024-02-26T06:31:14;2.13;;;2.03;;
8656;SDS011;4366;50.764;7.184;2024-02-26T06:36:16;2.00;;;1.90;;
8656;SDS011;4366;50.764;7.184;2024-02-26T06:41:18;2.07;;;2.00;;
8656;SDS011;4366;50.764;7.184;2024-02-26T06:46:21;2.00;;;1.90;;
8656;SDS011;4366;50.764;7.184;2024-02-26T06:51:24;2.10;;;2.00;;
8656;SDS011;4366;50.764;7.184;2024-02-26T06:56:26;2.00;;;1.90;;
8656;SDS011;4366;50.764;7.184;2024-02-26T07:01:28;2.30;;;2.20;;
8656;SDS011;4366;50.764;7.184;2024-02-26T07:06:30;2.50;;;2.40;;
8656;SDS011;4366;50.764;7.184;2024-02-26T07:11:32;2.40;;;2.30;;
8656;SDS011;4366;50.764;7.184;2024-02-26T07:16:34;2.73;;;2.53;;
8656;SDS011;4366;50.764;7.184;2024-02-26T07:21:35;2.40;;;2.30;;
8656;SDS011;4366;50.764;7.184;2024-02-26T07:26:37;2.40;;;2.30;;
8656;SDS011;4366;50.764;7.184;2024-02-26T07:31:39;2.23;;;2.13;;
8656;SDS011;4366;50.764;7.184;2024-02-26T07:36:41;2.20;;;2.10;;
8656;SDS011;4366;50.764;7.184;2024-02-26T07:41:43;2.30;;;2.20;;
8656;SDS011;4366;50.764;7.184;2024-02-26T07:46:49;2.60;;;2.40;;
8656;SDS011;4366;50.764;7.184;2024-02-26T07:51:50;2.20;;;2.10;;
8656;SDS011;4366;50.764;7.184;2024-02-26T07:56:52;2.20;;;2.10;;
8656;SDS011;4366;50.764;7.184;2024-02-26T08:01:54;2.33;;;2.17;;
8656;SDS011;4366;50.764;7.184;2024-02-26T08:06:59;2.20;;;2.10;;
8656;SDS011;4366;50.764;7.184;2024-02-26T08:12:01;2.00;;;1.90;;
8656;SDS011;4366;50.764;7.184;2024-02-26T08:17:03;2.30;;;2.20;;
8656;SDS011;4366;50.764;7.184;2024-02-26T08:22:05;2.20;;;2.10;;
8656;SDS011;4366;50.764;7.184;2024-02-26T08:27:07;2.17;;;2.07;;
8656;SDS011;4366;50.764;7.184;2024-02-26T08:32:09;2.17;;;2.03;;
8656;SDS011;4366;50.764;7.184;2024-02-26T08:37:11;2.87;;;2.37;;
8656;SDS011;4366;50.764;7.184;2024-02-26T08:42:13;2.40;;;2.30;;
8656;SDS011;4366;50.764;7.184;2024-02-26T08:47:15;2.20;;;2.10;;
8656;SDS011;4366;50.764;7.184;2024-02-26T08:52:17;2.50;;;2.40;;
8656;SDS011;4366;50.764;7.184;2024-02-26T08:57:19;2.17;;;2.07;;
8656;SDS011;4366;50.764;7.184;2024-02-26T09:02:21;2.40;;;2.30;;
8656;SDS011;4366;50.764;7.184;2024-02-26T09:07:22;3.07;;;2.70;;
8656;SDS011;4366;50.764;7.184;2024-02-26T09:12:24;2.37;;;2.20;;
8656;SDS011;4366;50.764;7.184;2024-02-26T09:17:26;2.20;;;2.10;;
8656;SDS011;4366;50.764;7.184;2024-02-26T09:22:28;2.50;;;2.30;;
8656;SDS011;4366;50.764;7.184;2024-02-26T09:27:30;2.30;;;2.20;;
8656;SDS011;4366;50.764;7.184;2024-02-26T09:32:32;2.40;;;2.30;;
8656;SDS011;4366;50.764;7.184;2024-02-26T09:37:34;2.70;;;2.50;;
8656;SDS011;4366;50.764;7.184;2024-02-26T09:42:40;2.50;;;2.40;;
8656;SDS011;4366;50.764;7.184;2024-02-26T09:47:45;2.40;;;2.30;;
8656;SDS011;4366;50.764;7.184;2024-02-26T09:52:51;2.77;;;2.60;;
8656;SDS011;4366;50.764;7.184;2024-02-26T09:57:56;2.67;;;2.50;;
8656;SDS011;4366;50.764;7.184;2024-02-26T10:02:59;2.20;;;2.10;;
8656;SDS011;4366;50.764;7.184;2024-02-26T10:08:05;2.30;;;2.10;;
8656;SDS011;4366;50.764;7.184;2024-02-26T10:13:07;3.07;;;2.30;;
8656;SDS011;4366;50.764;7.184;2024-02-26T10:18:11;2.93;;;2.53;;
8656;SDS011;4366;50.764;7.184;2024-02-26T10:23:13;2.70;;;2.47;;
8656;SDS011;4366;50.764;7.184;2024-02-26T10:28:15;2.53;;;2.40;;
8656;SDS011;4366;50.764;7.184;2024-02-26T10:33:17;2.70;;;2.50;;
8656;SDS011;4366;50.764;7.184;2024-02-26T10:38:19;2.60;;;2.40;;
8656;SDS011;4366;50.764;7.184;2024-02-26T10:43:21;2.67;;;2.47;;
8656;SDS011;4366;50.764;7.184;2024-02-26T10:48:23;2.47;;;2.27;;
8656;SDS011;4366;50.764;7.184;2024-02-26T10:53:27;2.23;;;2.13;;
8656;SDS011;4366;50.764;7.184;2024-02-26T10:58:31;2.73;;;2.53;;
8656;SDS011;4366;50.764;7.184;2024-02-26T11:03:33;3.00;;;2.80;;
8656;SDS011;4366;50.764;7.184;2024-02-26T11:08:36;2.60;;;2.40;;
8656;SDS011;4366;50.764;7.184;2024-02-26T11:13:39;2.70;;;2.50;;
8656;SDS011;4366;50.764;7.184;2024-02-26T11:18:46;2.17;;;2.07;;
8656;SDS011;4366;50.764;7.184;2024-02-26T11:23:49;2.30;;;2.10;;
8656;SDS011;4366;50.764;7.184;2024-02-26T11:28:51;2.60;;;2.40;;
8656;SDS011;4366;50.764;7.184;2024-02-26T11:33:53;2.80;;;2.60;;
8656;SDS011;4366;50.764;7.184;2024-02-26T11:38:56;2.40;;;2.20;;
8656;SDS011;4366;50.764;7.184;2024-02-26T11:43:58;2.60;;;2.43;;
8656;SDS011;4366;50.764;7.184;2024-02-26T11:49:03;3.43;;;2.70;;
8656;SDS011;4366;50.764;7.184;2024-02-26T11:54:05;2.40;;;2.30;;
8656;SDS011;4366;50.764;7.184;2024-02-26T11:59:10;2.50;;;2.37;;
8656;SDS011;4366;50.764;7.184;2024-02-26T12:04:22;2.63;;;2.40;;
8656;SDS011;4366;50.764;7.184;2024-02-26T12:09:31;3.27;;;2.57;;
8656;SDS011;4366;50.764;7.184;2024-02-26T12:14:40;2.87;;;2.67;;
8656;SDS011;4366;50.764;7.184;2024-02-26T12:19:52;3.00;;;2.70;;
8656;SDS011;4366;50.764;7.184;2024-02-26T12:24:58;2.50;;;2.40;;
8656;SDS011;4366;50.764;7.184;2024-02-26T12:30:02;4.00;;;2.83;;
8656;SDS011;4366;50.764;7.184;2024-02-26T12:35:05;2.70;;;2.50;;
8656;SDS011;4366;50.764;7.184;2024-02-26T12:40:07;3.10;;;2.80;;
8656;SDS011;4366;50.764;7.184;2024-02-26T12:45:10;2.47;;;2.27;;
8656;SDS011;4366;50.764;7.184;2024-02-26T12:50:13;3.37;;;2.80;;
8656;SDS011;4366;50.764;7.184;2024-02-26T12:55:18;2.60;;;2.50;;
8656;SDS011;4366;50.764;7.184;2024-02-26T13:00:24;2.80;;;2.37;;
8656;SDS011;4366;50.764;7.184;2024-02-26T13:05:27;3.00;;;2.60;;
8656;SDS011;4366;50.764;7.184;2024-02-26T13:10:29;2.70;;;2.50;;
8656;SDS011;4366;50.764;7.184;2024-02-26T13:15:30;3.73;;;2.77;;
8656;SDS011;4366;50.764;7.184;2024-02-26T13:20:32;2.60;;;2.40;;
8656;SDS011;4366;50.764;7.184;2024-02-26T13:25:35;2.57;;;2.33;;
8656;SDS011;4366;50.764;7.184;2024-02-26T13:30:37;2.60;;;2.40;;
8656;SDS011;4366;50.764;7.184;2024-02-26T13:35:40;2.90;;;2.70;;
8656;SDS011;4366;50.764;7.184;2024-02-26T13:40:42;2.77;;;2.57;;
8656;SDS011;4366;50.764;7.184;2024-02-26T13:45:43;2.73;;;2.50;;
8656;SDS011;4366;50.764;7.184;2024-02-26T13:50:46;2.70;;;2.50;;
8656;SDS011;4366;50.764;7.184;2024-02-26T13:55:48;2.70;;;2.50;;
8656;SDS011;4366;50.764;7.184;2024-02-26T14:00:50;2.47;;;2.27;;
8656;SDS011;4366;50.764;7.184;2024-02-26T14:05:51;3.47;;;2.70;;
8656;SDS011;4366;50.764;7.184;2024-02-26T14:10:53;2.83;;;2.63;;
8656;SDS011;4366;50.764;7.184;2024-02-26T14:15:56;2.87;;;2.67;;
8656;SDS011;4366;50.764;7.184;2024-02-26T14:20:58;2.90;;;2.70;;
8656;SDS011;4366;50.764;7.184;2024-02-26T14:25:59;2.87;;;2.60;;
8656;SDS011;4366;50.764;7.184;2024-02-26T14:31:02;2.90;;;2.70;;
8656;SDS011;4366;50.764;7.184;2024-02-26T14:36:06;2.80;;;2.60;;
8656;SDS011;4366;50.764;7.184;2024-02-26T14:41:08;5.20;;;3.40;;
8656;SDS011;4366;50.764;7.184;2024-02-26T14:46:10;2.90;;;2.70;;
8656;SDS011;4366;50.764;7.184;2024-02-26T14:51:11;3.50;;;3.20;;
8656;SDS011;4366;50.764;7.184;2024-02-26T14:56:13;3.60;;;3.00;;
8656;SDS011;4366;50.764;7.184;2024-02-26T15:01:15;4.60;;;3.07;;
8656;SDS011;4366;50.764;7.184;2024-02-26T15:06:16;3.33;;;3.03;;
8656;SDS011;4366;50.764;7.184;2024-02-26T15:11:18;3.27;;;3.00;;
8656;SDS011;4366;50.764;7.184;2024-02-26T15:16:20;4.27;;;3.70;;
8656;SDS011;4366;50.764;7.184;2024-02-26T15:21:22;3.97;;;3.50;;
8656;SDS011;4366;50.764;7.184;2024-02-26T15:26:24;4.00;;;3.60;;
8656;SDS011;4366;50.764;7.184;2024-02-26T15:31:27;4.10;;;3.70;;
8656;SDS011;4366;50.764;7.184;2024-02-26T15:36:29;3.70;;;3.33;;
8656;SDS011;4366;50.764;7.184;2024-02-26T15:41:31;4.30;;;3.77;;
8656;SDS011;4366;50.764;7.184;2024-02-26T15:46:33;4.23;;;3.83;;
8656;SDS011;4366;50.764;7.184;2024-02-26T15:51:34;4.30;;;3.80;;
8656;SDS011;4366;50.764;7.184;2024-02-26T15:56:36;4.43;;;4.03;;
8656;SDS011;4366;50.764;7.184;2024-02-26T16:01:39;4.67;;;3.87;;
8656;SDS011;4366;50.764;7.184;2024-02-26T16:06:45;4.10;;;3.70;;
8656;SDS011;4366;50.764;7.184;2024-02-26T16:11:50;5.27;;;3.97;;
8656;SDS011;4366;50.764;7.184;2024-02-26T16:16:53;4.37;;;3.70;;
8656;SDS011;4366;50.764;7.184;2024-02-26T16:21:58;3.87;;;3.50;;
8656;SDS011;4366;50.764;7.184;2024-02-26T16:27:00;4.43;;;3.73;;
8656;SDS011;4366;50.764;7.184;2024-02-26T16:32:02;4.70;;;4.27;;
8656;SDS011;4366;50.764;7.184;2024-02-26T16:37:07;5.00;;;3.73;;
8656;SDS011;4366;50.764;7.184;2024-02-26T16:42:11;4.60;;;4.17;;
8656;SDS011;4366;50.764;7.184;2024-02-26T16:47:13;5.27;;;3.77;;
8656;SDS011;4366;50.764;7.184;2024-02-26T16:52:15;4.27;;;3.70;;
8656;SDS011;4366;50.764;7.184;2024-02-26T16:57:17;5.00;;;3.93;;
8656;SDS011;4366;50.764;7.184;2024-02-26T17:02:18;3.93;;;3.57;;
8656;SDS011;4366;50.764;7.184;2024-02-26T17:07:20;6.97;;;4.23;;
8656;SDS011;4366;50.764;7.184;2024-02-26T17:12:26;4.87;;;4.07;;
8656;SDS011;4366;50.764;7.184;2024-02-26T17:17:27;4.57;;;4.03;;
8656;SDS011;4366;50.764;7.184;2024-02-26T17:22:29;4.73;;;4.23;;
8656;SDS011;4366;50.764;7.184;2024-02-26T17:27:31;5.63;;;4.97;;
8656;SDS011;4366;50.764;7.184;2024-02-26T17:32:33;5.23;;;4.40;;
8656;SDS011;4366;50.764;7.184;2024-02-26T17:37:35;5.07;;;4.27;;
8656;SDS011;4366;50.764;7.184;2024-02-26T17:42:37;8.60;;;4.63;;
8656;SDS011;4366;50.764;7.184;2024-02-26T17:47:39;5.80;;;4.70;;
8656;SDS011;4366;50.764;7.184;2024-02-26T17:52:41;5.47;;;4.63;;
8656;SDS011;4366;50.764;7.184;2024-02-26T17:57:42;5.40;;;4.90;;
8656;SDS011;4366;50.764;7.184;2024-02-26T18:02:45;6.93;;;4.97;;
8656;SDS011;4366;50.764;7.184;2024-02-26T18:07:47;6.17;;;5.57;;
8656;SDS011;4366;50.764;7.184;2024-02-26T18:12:49;5.67;;;5.07;;
8656;SDS011;4366;50.764;7.184;2024-02-26T18:17:50;6.40;;;5.40;;
8656;SDS011;4366;50.764;7.184;2024-02-26T18:22:53;5.77;;;5.17;;
8656;SDS011;4366;50.764;7.184;2024-02-26T18:27:55;5.90;;;4.80;;
8656;SDS011;4366;50.764;7.184;2024-02-26T18:32:57;6.30;;;5.17;;
8656;SDS011;4366;50.764;7.184;2024-02-26T18:37:59;7.10;;;5.73;;
8656;SDS011;4366;50.764;7.184;2024-02-26T18:43:01;8.43;;;5.73;;
8656;SDS011;4366;50.764;7.184;2024-02-26T18:48:03;7.70;;;6.00;;
8656;SDS011;4366;50.764;7.184;2024-02-26T18:53:06;7.13;;;5.57;;
8656;SDS011;4366;50.764;7.184;2024-02-26T18:58:08;7.87;;;6.47;;
8656;SDS011;4366;50.764;7.184;2024-02-26T19:03:10;6.70;;;5.83;;
8656;SDS011;4366;50.764;7.184;2024-02-26T19:08:11;9.07;;;6.67;;
8656;SDS011;4366;50.764;7.184;2024-02-26T19:13:13;7.90;;;6.27;;
8656;SDS011;4366;50.764;7.184;2024-02-26T19:18:15;7.93;;;6.70;;
8656;SDS011;4366;50.764;7.184;2024-02-26T19:23:17;7.73;;;6.93;;
8656;SDS011;4366;50.764;7.184;2024-02-26T19:28:18;9.27;;;7.07;;
8656;SDS011;4366;50.764;7.184;2024-02-26T19:33:20;9.17;;;7.00;;
8656;SDS011;4366;50.764;7.184;2024-02-26T19:38:22;9.93;;;7.13;;
8656;SDS011;4366;50.764;7.184;2024-02-26T19:43:25;7.80;;;6.37;;
8656;SDS011;4366;50.764;7.184;2024-02-26T19:48:27;7.63;;;6.20;;
8656;SDS011;4366;50.764;7.184;2024-02-26T19:53:30;8.93;;;7.23;;
8656;SDS011;4366;50.764;7.184;2024-02-26T19:58:31;12.33;;;8.27;;
8656;SDS011;4366;50.764;7.184;2024-02-26T20:03:34;10.00;;;7.80;;
8656;SDS011;4366;50.764;7.184;2024-02-26T20:08:37;9.00;;;7.10;;
8656;SDS011;4366;50.764;7.184;2024-02-26T20:13:38;8.10;;;7.27;;
8656;SDS011;4366;50.764;7.184;2024-02-26T20:18:40;7.90;;;6.20;;
8656;SDS011;4366;50.764;7.184;2024-02-26T20:23:42;8.07;;;6.23;;
8656;SDS011;4366;50.764;7.184;2024-02-26T20:28:43;8.90;;;6.47;;
8656;SDS011;4366;50.764;7.184;2024-02-26T20:33:45;8.83;;;7.00;;
8656;SDS011;4366;50.764;7.184;2024-02-26T20:38:48;8.30;;;7.50;;
8656;SDS011;4366;50.764;7.184;2024-02-26T20:43:50;8.37;;;7.13;;
8656;SDS011;4366;50.764;7.184;2024-02-26T20:48:52;8.67;;;7.80;;
8656;SDS011;4366;50.764;7.184;2024-02-26T20:53:55;8.43;;;7.60;;
8656;SDS011;4366;50.764;7.184;2024-02-26T20:58:58;8.43;;;7.53;;
8656;SDS011;4366;50.764;7.184;2024-02-26T21:04:00;8.17;;;7.37;;
8656;SDS011;4366;50.764;7.184;2024-02-26T21:09:02;8.43;;;7.47;;
8656;SDS011;4366;50.764;7.184;2024-02-26T21:14:05;7.67;;;6.97;;
8656;SDS011;4366;50.764;7.184;2024-02-26T21:19:08;8.23;;;7.40;;
8656;SDS011;4366;50.764;7.184;2024-02-26T21:24:10;8.70;;;7.80;;
8656;SDS011;4366;50.764;7.184;2024-02-26T21:29:12;10.73;;;9.30;;
8656;SDS011;4366;50.764;7.184;2024-02-26T21:34:14;9.47;;;8.03;;
8656;SDS011;4366;50.764;7.184;2024-02-26T21:39:16;8.97;;;8.07;;
8656;SDS011;4366;50.764;7.184;2024-02-26T21:44:18;9.57;;;7.67;;
8656;SDS011;4366;50.764;7.184;2024-02-26T21:49:20;9.43;;;8.43;;
8656;SDS011;4366;50.764;7.184;2024-02-26T21:54:23;8.07;;;7.27;;
8656;SDS011;4366;50.764;7.184;2024-02-26T21:59:28;10.03;;;8.03;;
8656;SDS011;4366;50.764;7.184;2024-02-26T22:04:30;9.47;;;7.93;;
8656;SDS011;4366;50.764;7.184;2024-02-26T22:09:32;10.97;;;8.67;;
8656;SDS011;4366;50.764;7.184;2024-02-26T22:14:35;9.50;;;8.17;;
8656;SDS011;4366;50.764;7.184;2024-02-26T22:19:37;9.03;;;8.13;;
8656;SDS011;4366;50.764;7.184;2024-02-26T22:24:38;8.17;;;7.47;;
8656;SDS011;4366;50.764;7.184;2024-02-26T22:29:40;8.80;;;7.90;;
8656;SDS011;4366;50.764;7.184;2024-02-26T22:34:42;8.23;;;7.27;;
8656;SDS011;4366;50.764;7.184;2024-02-26T22:39:43;8.10;;;6.87;;
8656;SDS011;4366;50.764;7.184;2024-02-26T22:44:46;7.73;;;6.87;;
8656;SDS011;4366;50.764;7.184;2024-02-26T22:49:48;8.63;;;7.30;;
8656;SDS011;4366;50.764;7.184;2024-02-26T22:54:50;7.90;;;6.57;;
8656;SDS011;4366;50.764;7.184;2024-02-26T22:59:51;9.03;;;6.67;;
8656;SDS011;4366;50.764;7.184;2024-02-26T23:04:54;7.27;;;6.50;;
8656;SDS011;4366;50.764;7.184;2024-02-26T23:09:55;10.20;;;6.40;;
8656;SDS011;4366;50.764;7.184;2024-02-26T23:14:57;7.27;;;6.20;;
8656;SDS011;4366;50.764;7.184;2024-02-26T23:19:59;7.90;;;6.27;;
8656;SDS011;4366;50.764;7.184;2024-02-26T23:25:01;6.60;;;5.90;;
8656;SDS011;4366;50.764;7.184;2024-02-26T23:30:04;6.73;;;5.70;;
8656;SDS011;4366;50.764;7.184;2024-02-26T23:35:07;6.40;;;5.87;;
8656;SDS011;4366;50.764;7.184;2024-02-26T23:40:09;8.30;;;6.03;;
8656;SDS011;4366;50.764;7.184;2024-02-26T23:45:12;7.47;;;6.00;;
8656;SDS011;4366;50.764;7.184;2024-02-26T23:50:13;7.57;;;6.07;;
8656;SDS011;4366;50.764;7.184;2024-02-26T23:55:16;7.53;;;5.90;;
